sensor_id;sensor_type;location;lat;lon;timestamp;P1;durP1;ratioP1;P2;durP2;ratioP2
4430;SDS011;2228;48.140;11.488;2022-09-09T00:02:24;2.70;;;1.50;;
4430;SDS011;2228;48.140;11.488;2022-09-09T00:04:58;3.22;;;1.30;;
4430;SDS011;2228;48.140;11.488;2022-09-09T00:07:32;3.53;;;1.50;;
4430;SDS011;2228;48.140;11.488;2022-09-09T00:10:12;4.22;;;1.55;;
4430;SDS011;2228;48.140;11.488;2022-09-09T00:12:47;1.50;;;1.10;;
4430;SDS011;2228;48.140;11.488;2022-09-09T00:15:22;3.40;;;1.30;;
4430;SDS011;2228;48.140;11.488;2022-09-09T00:17:55;3.13;;;1.50;;
4430;SDS011;2228;48.140;11.488;2022-09-09T00:20:29;4.10;;;1.80;;
4430;SDS011;2228;48.140;11.488;2022-09-09T00:23:02;1.90;;;1.40;;
4430;SDS011;2228;48.140;11.488;2022-09-09T00:25:40;1.52;;;1.20;;
4430;SDS011;2228;48.140;11.488;2022-09-09T00:28:17;2.20;;;1.50;;
4430;SDS011;2228;48.140;11.488;2022-09-09T00:30:45;2.60;;;1.50;;
4430;SDS011;2228;48.140;11.488;2022-09-09T00:33:17;1.63;;;1.40;;
4430;SDS011;2228;48.140;11.488;2022-09-09T00:35:48;2.63;;;1.20;;
4430;SDS011;2228;48.140;11.488;2022-09-09T00:38:18;4.57;;;1.75;;
4430;SDS011;2228;48.140;11.488;2022-09-09T00:40:50;2.30;;;1.30;;
4430;SDS011;2228;48.140;11.488;2022-09-09T00:43:27;1.60;;;1.30;;
4430;SDS011;2228;48.140;11.488;2022-09-09T00:46:09;2.33;;;1.40;;
4430;SDS011;2228;48.140;11.488;2022-09-09T00:48:52;2.08;;;1.50;;
4430;SDS011;2228;48.140;11.488;2022-09-09T00:51:27;2.22;;;1.60;;
4430;SDS011;2228;48.140;11.488;2022-09-09T00:54:16;2.92;;;1.48;;
4430;SDS011;2228;48.140;11.488;2022-09-09T00:56:56;3.78;;;1.60;;
4430;SDS011;2228;48.140;11.488;2022-09-09T00:59:40;5.00;;;1.58;;
4430;SDS011;2228;48.140;11.488;2022-09-09T01:02:13;2.63;;;1.67;;
4430;SDS011;2228;48.140;11.488;2022-09-09T01:05:07;3.03;;;1.77;;
4430;SDS011;2228;48.140;11.488;2022-09-09T01:07:39;3.58;;;1.70;;
4430;SDS011;2228;48.140;11.488;2022-09-09T01:10:13;2.40;;;1.73;;
4430;SDS011;2228;48.140;11.488;2022-09-09T01:12:47;1.80;;;1.60;;
4430;SDS011;2228;48.140;11.488;2022-09-09T01:15:18;3.30;;;1.90;;
4430;SDS011;2228;48.140;11.488;2022-09-09T01:17:51;3.20;;;2.10;;
4430;SDS011;2228;48.140;11.488;2022-09-09T01:20:26;2.20;;;1.30;;
4430;SDS011;2228;48.140;11.488;2022-09-09T01:23:02;2.13;;;1.50;;
4430;SDS011;2228;48.140;11.488;2022-09-09T01:28:42;4.60;;;1.80;;
4430;SDS011;2228;48.140;11.488;2022-09-09T01:31:11;3.00;;;1.50;;
4430;SDS011;2228;48.140;11.488;2022-09-09T01:33:43;2.25;;;1.52;;
4430;SDS011;2228;48.140;11.488;2022-09-09T01:36:11;1.92;;;1.50;;
4430;SDS011;2228;48.140;11.488;2022-09-09T01:38:41;2.63;;;1.50;;
4430;SDS011;2228;48.140;11.488;2022-09-09T01:41:08;3.30;;;1.50;;
4430;SDS011;2228;48.140;11.488;2022-09-09T01:43:36;2.30;;;1.50;;
4430;SDS011;2228;48.140;11.488;2022-09-09T01:46:04;3.60;;;1.40;;
4430;SDS011;2228;48.140;11.488;2022-09-09T01:48:31;4.20;;;1.50;;
4430;SDS011;2228;48.140;11.488;2022-09-09T01:50:59;2.15;;;1.58;;
4430;SDS011;2228;48.140;11.488;2022-09-09T01:53:26;7.00;;;1.80;;
4430;SDS011;2228;48.140;11.488;2022-09-09T01:55:56;4.80;;;1.80;;
4430;SDS011;2228;48.140;11.488;2022-09-09T01:58:32;2.00;;;1.52;;
4430;SDS011;2228;48.140;11.488;2022-09-09T02:01:17;3.80;;;1.80;;
4430;SDS011;2228;48.140;11.488;2022-09-09T02:03:55;2.40;;;1.50;;
4430;SDS011;2228;48.140;11.488;2022-09-09T02:06:28;3.72;;;1.65;;
4430;SDS011;2228;48.140;11.488;2022-09-09T02:09:00;2.38;;;1.40;;
4430;SDS011;2228;48.140;11.488;2022-09-09T02:11:30;4.78;;;1.80;;
4430;SDS011;2228;48.140;11.488;2022-09-09T02:14:00;2.65;;;1.90;;
4430;SDS011;2228;48.140;11.488;2022-09-09T02:16:30;5.45;;;1.60;;
4430;SDS011;2228;48.140;11.488;2022-09-09T02:19:03;3.25;;;1.70;;
4430;SDS011;2228;48.140;11.488;2022-09-09T02:21:37;3.30;;;1.40;;
4430;SDS011;2228;48.140;11.488;2022-09-09T02:24:06;5.60;;;1.70;;
4430;SDS011;2228;48.140;11.488;2022-09-09T02:26:36;1.90;;;1.50;;
4430;SDS011;2228;48.140;11.488;2022-09-09T02:29:08;2.43;;;1.40;;
4430;SDS011;2228;48.140;11.488;2022-09-09T02:31:40;5.15;;;1.70;;
4430;SDS011;2228;48.140;11.488;2022-09-09T02:34:10;4.18;;;1.60;;
4430;SDS011;2228;48.140;11.488;2022-09-09T02:36:38;2.17;;;1.95;;
4430;SDS011;2228;48.140;11.488;2022-09-09T02:39:09;5.53;;;1.77;;
4430;SDS011;2228;48.140;11.488;2022-09-09T02:41:37;2.40;;;1.70;;
4430;SDS011;2228;48.140;11.488;2022-09-09T02:44:08;2.40;;;1.88;;
4430;SDS011;2228;48.140;11.488;2022-09-09T02:46:43;3.95;;;1.70;;
4430;SDS011;2228;48.140;11.488;2022-09-09T02:49:22;3.15;;;1.85;;
4430;SDS011;2228;48.140;11.488;2022-09-09T02:51:57;3.28;;;1.80;;
4430;SDS011;2228;48.140;11.488;2022-09-09T02:54:31;2.00;;;1.40;;
4430;SDS011;2228;48.140;11.488;2022-09-09T02:57:01;5.00;;;1.60;;
4430;SDS011;2228;48.140;11.488;2022-09-09T02:59:32;4.07;;;1.77;;
4430;SDS011;2228;48.140;11.488;2022-09-09T03:02:01;3.30;;;1.90;;
4430;SDS011;2228;48.140;11.488;2022-09-09T03:04:28;2.00;;;1.60;;
4430;SDS011;2228;48.140;11.488;2022-09-09T03:06:56;3.55;;;1.60;;
4430;SDS011;2228;48.140;11.488;2022-09-09T03:09:23;4.88;;;1.90;;
4430;SDS011;2228;48.140;11.488;2022-09-09T03:11:51;5.63;;;1.60;;
4430;SDS011;2228;48.140;11.488;2022-09-09T03:14:20;3.13;;;1.50;;
4430;SDS011;2228;48.140;11.488;2022-09-09T03:16:49;3.08;;;1.90;;
4430;SDS011;2228;48.140;11.488;2022-09-09T03:19:18;4.07;;;1.50;;
4430;SDS011;2228;48.140;11.488;2022-09-09T03:21:45;3.97;;;1.60;;
4430;SDS011;2228;48.140;11.488;2022-09-09T03:24:12;2.92;;;1.80;;
4430;SDS011;2228;48.140;11.488;2022-09-09T03:26:40;4.20;;;1.80;;
4430;SDS011;2228;48.140;11.488;2022-09-09T03:29:10;2.20;;;1.90;;
4430;SDS011;2228;48.140;11.488;2022-09-09T03:31:38;4.25;;;1.77;;
4430;SDS011;2228;48.140;11.488;2022-09-09T03:34:05;3.10;;;1.70;;
4430;SDS011;2228;48.140;11.488;2022-09-09T03:36:33;3.20;;;1.60;;
4430;SDS011;2228;48.140;11.488;2022-09-09T03:39:00;3.13;;;1.50;;
4430;SDS011;2228;48.140;11.488;2022-09-09T03:41:28;3.80;;;1.80;;
4430;SDS011;2228;48.140;11.488;2022-09-09T03:43:55;4.60;;;1.75;;
4430;SDS011;2228;48.140;11.488;2022-09-09T03:46:23;4.53;;;1.73;;
4430;SDS011;2228;48.140;11.488;2022-09-09T03:48:51;3.00;;;1.63;;
4430;SDS011;2228;48.140;11.488;2022-09-09T03:51:18;4.22;;;2.00;;
4430;SDS011;2228;48.140;11.488;2022-09-09T03:53:46;5.60;;;2.20;;
4430;SDS011;2228;48.140;11.488;2022-09-09T03:56:13;3.70;;;1.77;;
4430;SDS011;2228;48.140;11.488;2022-09-09T03:58:40;2.80;;;2.00;;
4430;SDS011;2228;48.140;11.488;2022-09-09T04:01:08;5.90;;;1.97;;
4430;SDS011;2228;48.140;11.488;2022-09-09T04:03:38;3.13;;;1.80;;
4430;SDS011;2228;48.140;11.488;2022-09-09T04:06:06;3.00;;;1.80;;
4430;SDS011;2228;48.140;11.488;2022-09-09T04:08:34;3.42;;;1.83;;
4430;SDS011;2228;48.140;11.488;2022-09-09T04:11:04;2.85;;;1.70;;
4430;SDS011;2228;48.140;11.488;2022-09-09T04:13:31;2.75;;;1.40;;
4430;SDS011;2228;48.140;11.488;2022-09-09T04:15:59;3.80;;;1.50;;
4430;SDS011;2228;48.140;11.488;2022-09-09T04:18:27;6.70;;;1.65;;
4430;SDS011;2228;48.140;11.488;2022-09-09T04:20:54;2.45;;;1.58;;
4430;SDS011;2228;48.140;11.488;2022-09-09T04:23:22;3.17;;;1.40;;
4430;SDS011;2228;48.140;11.488;2022-09-09T04:25:50;2.72;;;1.13;;
4430;SDS011;2228;48.140;11.488;2022-09-09T04:28:20;2.90;;;1.60;;
4430;SDS011;2228;48.140;11.488;2022-09-09T04:30:49;3.20;;;1.40;;
4430;SDS011;2228;48.140;11.488;2022-09-09T04:33:17;2.70;;;1.30;;
4430;SDS011;2228;48.140;11.488;2022-09-09T04:35:44;2.42;;;1.30;;
4430;SDS011;2228;48.140;11.488;2022-09-09T04:38:13;3.15;;;1.30;;
4430;SDS011;2228;48.140;11.488;2022-09-09T04:40:41;2.60;;;1.40;;
4430;SDS011;2228;48.140;11.488;2022-09-09T04:43:09;2.50;;;1.50;;
4430;SDS011;2228;48.140;11.488;2022-09-09T04:45:37;3.28;;;1.70;;
4430;SDS011;2228;48.140;11.488;2022-09-09T04:48:05;3.60;;;1.60;;
4430;SDS011;2228;48.140;11.488;2022-09-09T04:50:32;2.13;;;1.45;;
4430;SDS011;2228;48.140;11.488;2022-09-09T04:52:59;2.75;;;1.65;;
4430;SDS011;2228;48.140;11.488;2022-09-09T04:55:27;2.88;;;1.77;;
4430;SDS011;2228;48.140;11.488;2022-09-09T04:57:55;5.50;;;1.50;;
4430;SDS011;2228;48.140;11.488;2022-09-09T05:00:22;2.75;;;1.80;;
4430;SDS011;2228;48.140;11.488;2022-09-09T05:02:51;2.58;;;1.88;;
4430;SDS011;2228;48.140;11.488;2022-09-09T05:05:17;2.30;;;1.60;;
4430;SDS011;2228;48.140;11.488;2022-09-09T05:07:44;3.42;;;1.50;;
4430;SDS011;2228;48.140;11.488;2022-09-09T05:10:12;3.23;;;1.60;;
4430;SDS011;2228;48.140;11.488;2022-09-09T05:12:40;5.25;;;1.90;;
4430;SDS011;2228;48.140;11.488;2022-09-09T05:15:07;5.07;;;1.70;;
4430;SDS011;2228;48.140;11.488;2022-09-09T05:17:36;3.70;;;1.80;;
4430;SDS011;2228;48.140;11.488;2022-09-09T05:20:05;5.25;;;1.90;;
4430;SDS011;2228;48.140;11.488;2022-09-09T05:22:32;3.25;;;1.80;;
4430;SDS011;2228;48.140;11.488;2022-09-09T05:24:59;3.30;;;1.80;;
4430;SDS011;2228;48.140;11.488;2022-09-09T05:27:26;3.67;;;1.77;;
4430;SDS011;2228;48.140;11.488;2022-09-09T05:29:53;5.75;;;1.55;;
4430;SDS011;2228;48.140;11.488;2022-09-09T05:32:20;2.35;;;1.70;;
4430;SDS011;2228;48.140;11.488;2022-09-09T05:34:46;2.15;;;1.50;;
4430;SDS011;2228;48.140;11.488;2022-09-09T05:37:14;2.90;;;1.50;;
4430;SDS011;2228;48.140;11.488;2022-09-09T05:39:41;4.10;;;1.40;;
4430;SDS011;2228;48.140;11.488;2022-09-09T05:42:08;2.37;;;1.40;;
4430;SDS011;2228;48.140;11.488;2022-09-09T05:44:35;4.10;;;1.30;;
4430;SDS011;2228;48.140;11.488;2022-09-09T05:47:02;1.83;;;1.23;;
4430;SDS011;2228;48.140;11.488;2022-09-09T05:49:29;1.85;;;1.45;;
4430;SDS011;2228;48.140;11.488;2022-09-09T05:51:56;2.67;;;1.77;;
4430;SDS011;2228;48.140;11.488;2022-09-09T05:54:24;2.55;;;1.30;;
4430;SDS011;2228;48.140;11.488;2022-09-09T05:56:51;2.38;;;1.40;;
4430;SDS011;2228;48.140;11.488;2022-09-09T05:59:18;3.13;;;1.33;;
4430;SDS011;2228;48.140;11.488;2022-09-09T06:01:45;4.60;;;1.60;;
4430;SDS011;2228;48.140;11.488;2022-09-09T06:04:12;3.20;;;1.20;;
4430;SDS011;2228;48.140;11.488;2022-09-09T06:06:39;2.38;;;1.20;;
4430;SDS011;2228;48.140;11.488;2022-09-09T06:09:07;7.15;;;1.55;;
4430;SDS011;2228;48.140;11.488;2022-09-09T06:11:37;4.47;;;1.40;;
4430;SDS011;2228;48.140;11.488;2022-09-09T06:14:05;4.43;;;1.40;;
4430;SDS011;2228;48.140;11.488;2022-09-09T06:16:32;1.45;;;1.10;;
4430;SDS011;2228;48.140;11.488;2022-09-09T06:18:59;2.40;;;1.13;;
4430;SDS011;2228;48.140;11.488;2022-09-09T06:21:28;6.30;;;1.50;;
4430;SDS011;2228;48.140;11.488;2022-09-09T06:23:58;3.95;;;1.00;;
4430;SDS011;2228;48.140;11.488;2022-09-09T06:26:26;2.78;;;1.10;;
4430;SDS011;2228;48.140;11.488;2022-09-09T06:28:57;2.05;;;1.05;;
4430;SDS011;2228;48.140;11.488;2022-09-09T06:31:25;3.70;;;1.13;;
4430;SDS011;2228;48.140;11.488;2022-09-09T06:33:55;3.00;;;1.00;;
4430;SDS011;2228;48.140;11.488;2022-09-09T06:36:23;4.93;;;1.48;;
4430;SDS011;2228;48.140;11.488;2022-09-09T06:38:52;3.90;;;1.20;;
4430;SDS011;2228;48.140;11.488;2022-09-09T06:41:19;3.45;;;1.02;;
4430;SDS011;2228;48.140;11.488;2022-09-09T06:43:47;1.97;;;1.20;;
4430;SDS011;2228;48.140;11.488;2022-09-09T06:46:16;1.67;;;1.05;;
4430;SDS011;2228;48.140;11.488;2022-09-09T06:48:44;3.70;;;1.10;;
4430;SDS011;2228;48.140;11.488;2022-09-09T06:51:12;4.07;;;1.00;;
4430;SDS011;2228;48.140;11.488;2022-09-09T06:53:41;3.50;;;0.90;;
4430;SDS011;2228;48.140;11.488;2022-09-09T06:56:19;2.70;;;1.05;;
4430;SDS011;2228;48.140;11.488;2022-09-09T06:58:48;6.00;;;1.27;;
4430;SDS011;2228;48.140;11.488;2022-09-09T07:01:19;2.28;;;0.90;;
4430;SDS011;2228;48.140;11.488;2022-09-09T07:03:47;1.15;;;0.90;;
4430;SDS011;2228;48.140;11.488;2022-09-09T07:06:16;3.00;;;1.00;;
4430;SDS011;2228;48.140;11.488;2022-09-09T07:08:48;3.05;;;1.15;;
4430;SDS011;2228;48.140;11.488;2022-09-09T07:11:16;5.72;;;1.10;;
4430;SDS011;2228;48.140;11.488;2022-09-09T07:13:44;2.33;;;1.20;;
4430;SDS011;2228;48.140;11.488;2022-09-09T07:16:11;3.60;;;1.00;;
4430;SDS011;2228;48.140;11.488;2022-09-09T07:18:40;2.60;;;0.90;;
4430;SDS011;2228;48.140;11.488;2022-09-09T07:21:08;2.05;;;1.10;;
4430;SDS011;2228;48.140;11.488;2022-09-09T07:23:37;3.30;;;1.10;;
4430;SDS011;2228;48.140;11.488;2022-09-09T07:26:07;5.40;;;1.10;;
4430;SDS011;2228;48.140;11.488;2022-09-09T07:28:35;4.50;;;1.30;;
4430;SDS011;2228;48.140;11.488;2022-09-09T07:31:03;2.33;;;1.17;;
4430;SDS011;2228;48.140;11.488;2022-09-09T07:33:31;4.35;;;1.10;;
4430;SDS011;2228;48.140;11.488;2022-09-09T07:36:05;2.15;;;1.17;;
4430;SDS011;2228;48.140;11.488;2022-09-09T07:38:37;2.42;;;1.00;;
4430;SDS011;2228;48.140;11.488;2022-09-09T07:41:06;1.80;;;1.00;;
4430;SDS011;2228;48.140;11.488;2022-09-09T07:43:37;3.50;;;0.90;;
4430;SDS011;2228;48.140;11.488;2022-09-09T07:46:04;3.97;;;0.90;;
4430;SDS011;2228;48.140;11.488;2022-09-09T07:48:31;2.92;;;0.80;;
4430;SDS011;2228;48.140;11.488;2022-09-09T07:51:07;1.25;;;0.80;;
4430;SDS011;2228;48.140;11.488;2022-09-09T07:53:36;4.75;;;1.00;;
4430;SDS011;2228;48.140;11.488;2022-09-09T07:56:04;4.90;;;1.10;;
4430;SDS011;2228;48.140;11.488;2022-09-09T07:58:32;2.13;;;0.90;;
4430;SDS011;2228;48.140;11.488;2022-09-09T08:00:59;2.38;;;0.95;;
4430;SDS011;2228;48.140;11.488;2022-09-09T08:03:26;2.63;;;0.80;;
4430;SDS011;2228;48.140;11.488;2022-09-09T08:05:59;2.97;;;1.10;;
4430;SDS011;2228;48.140;11.488;2022-09-09T08:08:28;3.20;;;1.00;;
4430;SDS011;2228;48.140;11.488;2022-09-09T08:11:00;4.90;;;1.10;;
4430;SDS011;2228;48.140;11.488;2022-09-09T08:13:28;2.65;;;0.88;;
4430;SDS011;2228;48.140;11.488;2022-09-09T08:16:03;3.28;;;1.30;;
4430;SDS011;2228;48.140;11.488;2022-09-09T08:18:31;4.53;;;1.33;;
4430;SDS011;2228;48.140;11.488;2022-09-09T08:20:57;3.15;;;1.10;;
4430;SDS011;2228;48.140;11.488;2022-09-09T08:23:31;4.78;;;1.30;;
4430;SDS011;2228;48.140;11.488;2022-09-09T08:26:02;3.80;;;1.20;;
4430;SDS011;2228;48.140;11.488;2022-09-09T08:28:30;4.65;;;1.20;;
4430;SDS011;2228;48.140;11.488;2022-09-09T08:31:04;3.10;;;1.20;;
4430;SDS011;2228;48.140;11.488;2022-09-09T08:33:32;2.25;;;1.10;;
4430;SDS011;2228;48.140;11.488;2022-09-09T08:35:59;2.50;;;1.10;;
4430;SDS011;2228;48.140;11.488;2022-09-09T08:38:26;2.40;;;1.13;;
4430;SDS011;2228;48.140;11.488;2022-09-09T08:40:55;4.60;;;1.30;;
4430;SDS011;2228;48.140;11.488;2022-09-09T08:43:30;2.73;;;1.20;;
4430;SDS011;2228;48.140;11.488;2022-09-09T08:45:59;2.38;;;1.05;;
4430;SDS011;2228;48.140;11.488;2022-09-09T08:48:37;1.13;;;0.80;;
4430;SDS011;2228;48.140;11.488;2022-09-09T08:51:13;2.38;;;1.00;;
4430;SDS011;2228;48.140;11.488;2022-09-09T08:53:41;1.10;;;0.80;;
4430;SDS011;2228;48.140;11.488;2022-09-09T08:56:12;2.10;;;1.10;;
4430;SDS011;2228;48.140;11.488;2022-09-09T08:58:44;2.10;;;1.05;;
4430;SDS011;2228;48.140;11.488;2022-09-09T09:01:17;1.60;;;1.00;;
4430;SDS011;2228;48.140;11.488;2022-09-09T09:03:53;2.15;;;0.80;;
4430;SDS011;2228;48.140;11.488;2022-09-09T09:06:29;1.40;;;0.80;;
4430;SDS011;2228;48.140;11.488;2022-09-09T09:09:06;1.90;;;0.90;;
4430;SDS011;2228;48.140;11.488;2022-09-09T09:11:38;2.40;;;1.20;;
4430;SDS011;2228;48.140;11.488;2022-09-09T09:14:08;1.90;;;0.90;;
4430;SDS011;2228;48.140;11.488;2022-09-09T09:16:38;2.50;;;1.10;;
4430;SDS011;2228;48.140;11.488;2022-09-09T09:19:13;1.27;;;0.80;;
4430;SDS011;2228;48.140;11.488;2022-09-09T09:21:42;1.50;;;0.90;;
4430;SDS011;2228;48.140;11.488;2022-09-09T09:24:13;3.70;;;0.90;;
4430;SDS011;2228;48.140;11.488;2022-09-09T09:26:47;4.30;;;1.10;;
4430;SDS011;2228;48.140;11.488;2022-09-09T09:29:15;1.75;;;0.85;;
4430;SDS011;2228;48.140;11.488;2022-09-09T09:34:27;1.60;;;0.80;;
4430;SDS011;2228;48.140;11.488;2022-09-09T09:36:55;6.90;;;1.10;;
4430;SDS011;2228;48.140;11.488;2022-09-09T09:39:25;3.50;;;1.10;;
4430;SDS011;2228;48.140;11.488;2022-09-09T09:41:54;1.67;;;1.00;;
4430;SDS011;2228;48.140;11.488;2022-09-09T09:44:24;2.17;;;1.15;;
4430;SDS011;2228;48.140;11.488;2022-09-09T09:46:52;2.10;;;1.20;;
4430;SDS011;2228;48.140;11.488;2022-09-09T09:49:19;3.60;;;1.35;;
4430;SDS011;2228;48.140;11.488;2022-09-09T09:51:46;4.63;;;1.23;;
4430;SDS011;2228;48.140;11.488;2022-09-09T09:54:15;2.80;;;1.10;;
4430;SDS011;2228;48.140;11.488;2022-09-09T09:56:49;3.08;;;1.20;;
4430;SDS011;2228;48.140;11.488;2022-09-09T09:59:21;5.60;;;1.45;;
4430;SDS011;2228;48.140;11.488;2022-09-09T10:01:49;4.15;;;1.08;;
4430;SDS011;2228;48.140;11.488;2022-09-09T10:04:17;3.15;;;1.30;;
4430;SDS011;2228;48.140;11.488;2022-09-09T10:06:46;4.35;;;1.10;;
4430;SDS011;2228;48.140;11.488;2022-09-09T10:09:23;3.50;;;1.50;;
4430;SDS011;2228;48.140;11.488;2022-09-09T10:11:53;1.75;;;1.10;;
4430;SDS011;2228;48.140;11.488;2022-09-09T10:14:30;3.10;;;1.30;;
4430;SDS011;2228;48.140;11.488;2022-09-09T10:17:07;2.00;;;1.40;;
4430;SDS011;2228;48.140;11.488;2022-09-09T10:19:43;2.60;;;1.30;;
4430;SDS011;2228;48.140;11.488;2022-09-09T10:22:25;3.45;;;1.10;;
4430;SDS011;2228;48.140;11.488;2022-09-09T10:28:09;4.45;;;1.10;;
4430;SDS011;2228;48.140;11.488;2022-09-09T10:30:50;2.65;;;0.90;;
4430;SDS011;2228;48.140;11.488;2022-09-09T10:33:27;1.40;;;1.00;;
4430;SDS011;2228;48.140;11.488;2022-09-09T10:35:59;1.70;;;1.20;;
4430;SDS011;2228;48.140;11.488;2022-09-09T10:38:37;2.90;;;1.10;;
4430;SDS011;2228;48.140;11.488;2022-09-09T10:41:14;2.70;;;1.00;;
4430;SDS011;2228;48.140;11.488;2022-09-09T10:44:06;2.88;;;0.90;;
4430;SDS011;2228;48.140;11.488;2022-09-09T10:46:55;3.50;;;0.93;;
4430;SDS011;2228;48.140;11.488;2022-09-09T10:49:47;5.50;;;1.07;;
4430;SDS011;2228;48.140;11.488;2022-09-09T10:52:29;2.03;;;1.00;;
4430;SDS011;2228;48.140;11.488;2022-09-09T10:55:06;4.40;;;1.15;;
4430;SDS011;2228;48.140;11.488;2022-09-09T10:57:39;3.78;;;0.90;;
4430;SDS011;2228;48.140;11.488;2022-09-09T11:00:14;2.42;;;0.90;;
4430;SDS011;2228;48.140;11.488;2022-09-09T11:02:45;2.30;;;0.80;;
4430;SDS011;2228;48.140;11.488;2022-09-09T11:05:19;1.90;;;0.80;;
4430;SDS011;2228;48.140;11.488;2022-09-09T11:07:51;1.65;;;0.90;;
4430;SDS011;2228;48.140;11.488;2022-09-09T11:10:23;1.50;;;0.80;;
4430;SDS011;2228;48.140;11.488;2022-09-09T11:12:57;1.27;;;0.80;;
4430;SDS011;2228;48.140;11.488;2022-09-09T11:15:30;3.67;;;0.93;;
4430;SDS011;2228;48.140;11.488;2022-09-09T11:18:06;2.05;;;1.25;;
4430;SDS011;2228;48.140;11.488;2022-09-09T11:20:42;2.10;;;0.90;;
4430;SDS011;2228;48.140;11.488;2022-09-09T11:23:11;1.25;;;0.80;;
4430;SDS011;2228;48.140;11.488;2022-09-09T11:25:42;2.10;;;0.90;;
4430;SDS011;2228;48.140;11.488;2022-09-09T11:28:27;1.50;;;0.70;;
4430;SDS011;2228;48.140;11.488;2022-09-09T11:31:05;2.10;;;0.80;;
4430;SDS011;2228;48.140;11.488;2022-09-09T11:33:57;2.40;;;0.80;;
4430;SDS011;2228;48.140;11.488;2022-09-09T11:39:38;1.00;;;0.60;;
4430;SDS011;2228;48.140;11.488;2022-09-09T11:42:27;2.10;;;0.73;;
4430;SDS011;2228;48.140;11.488;2022-09-09T11:44:53;1.75;;;0.77;;
4430;SDS011;2228;48.140;11.488;2022-09-09T11:47:23;1.30;;;0.70;;
4430;SDS011;2228;48.140;11.488;2022-09-09T11:50:06;1.30;;;0.70;;
4430;SDS011;2228;48.140;11.488;2022-09-09T11:52:38;3.10;;;0.70;;
4430;SDS011;2228;48.140;11.488;2022-09-09T11:55:08;1.70;;;0.80;;
4430;SDS011;2228;48.140;11.488;2022-09-09T11:57:36;2.00;;;0.90;;
4430;SDS011;2228;48.140;11.488;2022-09-09T12:00:05;2.88;;;0.90;;
4430;SDS011;2228;48.140;11.488;2022-09-09T12:02:32;1.40;;;0.70;;
4430;SDS011;2228;48.140;11.488;2022-09-09T12:05:04;1.80;;;0.83;;
4430;SDS011;2228;48.140;11.488;2022-09-09T12:07:35;1.10;;;0.90;;
4430;SDS011;2228;48.140;11.488;2022-09-09T12:10:05;3.15;;;0.82;;
4430;SDS011;2228;48.140;11.488;2022-09-09T12:12:48;1.13;;;0.70;;
4430;SDS011;2228;48.140;11.488;2022-09-09T12:15:20;2.55;;;0.77;;
4430;SDS011;2228;48.140;11.488;2022-09-09T12:17:54;0.90;;;0.70;;
4430;SDS011;2228;48.140;11.488;2022-09-09T12:20:23;1.50;;;0.85;;
4430;SDS011;2228;48.140;11.488;2022-09-09T12:23:01;2.90;;;0.80;;
4430;SDS011;2228;48.140;11.488;2022-09-09T12:25:48;2.60;;;0.70;;
4430;SDS011;2228;48.140;11.488;2022-09-09T12:28:27;1.70;;;0.90;;
4430;SDS011;2228;48.140;11.488;2022-09-09T12:31:08;1.50;;;0.70;;
4430;SDS011;2228;48.140;11.488;2022-09-09T12:33:42;1.30;;;0.70;;
4430;SDS011;2228;48.140;11.488;2022-09-09T12:36:14;2.40;;;0.80;;
4430;SDS011;2228;48.140;11.488;2022-09-09T12:38:44;2.83;;;0.70;;
4430;SDS011;2228;48.140;11.488;2022-09-09T12:41:19;1.20;;;0.80;;
4430;SDS011;2228;48.140;11.488;2022-09-09T12:43:47;2.90;;;0.70;;
4430;SDS011;2228;48.140;11.488;2022-09-09T12:46:17;1.80;;;0.70;;
4430;SDS011;2228;48.140;11.488;2022-09-09T12:48:52;1.75;;;0.75;;
4430;SDS011;2228;48.140;11.488;2022-09-09T12:51:24;1.60;;;0.75;;
4430;SDS011;2228;48.140;11.488;2022-09-09T12:53:54;1.60;;;0.80;;
4430;SDS011;2228;48.140;11.488;2022-09-09T12:56:22;1.40;;;0.70;;
4430;SDS011;2228;48.140;11.488;2022-09-09T12:58:52;1.10;;;0.80;;
4430;SDS011;2228;48.140;11.488;2022-09-09T13:01:22;3.83;;;0.70;;
4430;SDS011;2228;48.140;11.488;2022-09-09T13:03:49;1.63;;;0.90;;
4430;SDS011;2228;48.140;11.488;2022-09-09T13:06:20;2.00;;;0.70;;
4430;SDS011;2228;48.140;11.488;2022-09-09T13:08:50;3.17;;;0.90;;
4430;SDS011;2228;48.140;11.488;2022-09-09T13:11:18;2.90;;;0.70;;
4430;SDS011;2228;48.140;11.488;2022-09-09T13:13:52;2.00;;;0.70;;
4430;SDS011;2228;48.140;11.488;2022-09-09T13:16:22;1.35;;;0.70;;
4430;SDS011;2228;48.140;11.488;2022-09-09T13:18:56;1.00;;;0.70;;
4430;SDS011;2228;48.140;11.488;2022-09-09T13:21:32;1.77;;;0.70;;
4430;SDS011;2228;48.140;11.488;2022-09-09T13:24:00;2.65;;;0.90;;
4430;SDS011;2228;48.140;11.488;2022-09-09T13:26:29;0.90;;;0.70;;
4430;SDS011;2228;48.140;11.488;2022-09-09T13:29:07;2.58;;;0.80;;
4430;SDS011;2228;48.140;11.488;2022-09-09T13:31:41;1.70;;;0.90;;
4430;SDS011;2228;48.140;11.488;2022-09-09T13:34:12;2.88;;;0.73;;
4430;SDS011;2228;48.140;11.488;2022-09-09T13:36:41;2.72;;;0.70;;
4430;SDS011;2228;48.140;11.488;2022-09-09T13:39:15;2.53;;;0.70;;
4430;SDS011;2228;48.140;11.488;2022-09-09T13:41:43;2.40;;;0.70;;
4430;SDS011;2228;48.140;11.488;2022-09-09T13:44:14;2.70;;;0.80;;
4430;SDS011;2228;48.140;11.488;2022-09-09T13:46:46;1.90;;;0.70;;
4430;SDS011;2228;48.140;11.488;2022-09-09T13:49:19;1.90;;;0.70;;
4430;SDS011;2228;48.140;11.488;2022-09-09T13:51:49;1.50;;;0.60;;
4430;SDS011;2228;48.140;11.488;2022-09-09T13:54:19;2.90;;;0.80;;
4430;SDS011;2228;48.140;11.488;2022-09-09T13:56:47;1.37;;;0.70;;
4430;SDS011;2228;48.140;11.488;2022-09-09T13:59:16;1.38;;;0.60;;
4430;SDS011;2228;48.140;11.488;2022-09-09T14:01:45;1.58;;;0.80;;
4430;SDS011;2228;48.140;11.488;2022-09-09T14:04:12;1.30;;;0.60;;
4430;SDS011;2228;48.140;11.488;2022-09-09T14:06:39;3.33;;;0.70;;
4430;SDS011;2228;48.140;11.488;2022-09-09T14:09:10;2.67;;;0.70;;
4430;SDS011;2228;48.140;11.488;2022-09-09T14:11:40;1.00;;;0.70;;
4430;SDS011;2228;48.140;11.488;2022-09-09T14:14:07;3.50;;;0.80;;
4430;SDS011;2228;48.140;11.488;2022-09-09T14:16:34;3.70;;;0.83;;
4430;SDS011;2228;48.140;11.488;2022-09-09T14:19:02;1.30;;;0.70;;
4430;SDS011;2228;48.140;11.488;2022-09-09T14:21:29;2.00;;;0.70;;
4430;SDS011;2228;48.140;11.488;2022-09-09T14:23:57;1.60;;;0.80;;
4430;SDS011;2228;48.140;11.488;2022-09-09T14:26:25;1.10;;;0.77;;
4430;SDS011;2228;48.140;11.488;2022-09-09T14:28:53;1.30;;;0.80;;
4430;SDS011;2228;48.140;11.488;2022-09-09T14:31:21;1.70;;;0.90;;
4430;SDS011;2228;48.140;11.488;2022-09-09T14:33:48;2.72;;;0.90;;
4430;SDS011;2228;48.140;11.488;2022-09-09T14:36:15;2.08;;;0.80;;
4430;SDS011;2228;48.140;11.488;2022-09-09T14:38:42;3.03;;;0.70;;
4430;SDS011;2228;48.140;11.488;2022-09-09T14:41:10;2.42;;;0.80;;
4430;SDS011;2228;48.140;11.488;2022-09-09T14:43:39;1.42;;;0.80;;
4430;SDS011;2228;48.140;11.488;2022-09-09T14:46:06;3.00;;;0.77;;
4430;SDS011;2228;48.140;11.488;2022-09-09T14:48:34;1.55;;;1.00;;
4430;SDS011;2228;48.140;11.488;2022-09-09T14:51:05;2.90;;;0.83;;
4430;SDS011;2228;48.140;11.488;2022-09-09T14:53:33;1.58;;;0.90;;
4430;SDS011;2228;48.140;11.488;2022-09-09T14:56:03;2.57;;;0.70;;
4430;SDS011;2228;48.140;11.488;2022-09-09T14:58:31;3.87;;;1.07;;
4430;SDS011;2228;48.140;11.488;2022-09-09T15:01:03;3.57;;;0.80;;
4430;SDS011;2228;48.140;11.488;2022-09-09T15:03:31;2.72;;;0.90;;
4430;SDS011;2228;48.140;11.488;2022-09-09T15:05:58;1.50;;;0.70;;
4430;SDS011;2228;48.140;11.488;2022-09-09T15:08:30;4.40;;;1.20;;
4430;SDS011;2228;48.140;11.488;2022-09-09T15:10:58;3.20;;;0.90;;
4430;SDS011;2228;48.140;11.488;2022-09-09T15:13:26;1.67;;;0.70;;
4430;SDS011;2228;48.140;11.488;2022-09-09T15:15:53;2.00;;;0.90;;
4430;SDS011;2228;48.140;11.488;2022-09-09T15:18:21;4.40;;;0.88;;
4430;SDS011;2228;48.140;11.488;2022-09-09T15:20:48;2.00;;;0.90;;
4430;SDS011;2228;48.140;11.488;2022-09-09T15:23:16;2.60;;;0.70;;
4430;SDS011;2228;48.140;11.488;2022-09-09T15:25:52;3.70;;;0.80;;
4430;SDS011;2228;48.140;11.488;2022-09-09T15:28:20;2.20;;;0.80;;
4430;SDS011;2228;48.140;11.488;2022-09-09T15:30:47;4.25;;;0.80;;
4430;SDS011;2228;48.140;11.488;2022-09-09T15:33:14;1.90;;;0.70;;
4430;SDS011;2228;48.140;11.488;2022-09-09T15:35:43;3.45;;;0.80;;